Dayhoit, KY (40824)

4:20 PM EDT on August 01, 2015 (GMT -0400)
Rose Hill | | Change Station
CLOSE
Current Station
Personal Weather Station
Location: Rose Hill, VA
Elevation: 1860 ft
Nearby Weather Stations

Elev 1860 ft 36.67 °N, 83.29 °W | Updated 10 minutes ago

Partly Cloudy
Partly Cloudy
82.3 °F
Feels Like 83 °F
N
3.0
Wind Variable Wind from NNW
Gusts 5.0 mph

Today
High -- | Low -- °F
--% Chance of Precip.
Yesterday
High -- | Low -- °F
Precip. -- in
6:38 AM 8:40 PM
Full, 97% visible
Pressure 30.00 in
Visibility 10.0 miles
Clouds Clear
Heat Index 83 °F
Dew Point 61 °F
Humidity 49%
Rainfall 0.00 in
Snow Depth Not available.
UV 8 out of 12
Pollen 4.20 out of 12
Air Quality Not available.
Flu Activity Not available.
METAR K1A6 012015Z AUTO 32004KT 10SM CLR 30/15 A3000 RMK AO2 T03010152

More Conditions Fewer Conditions

Pressure 30.00 in
Visibility 10.0 miles
Clouds Clear
Heat Index 83 °F
Dew Point 61 °F
Humidity 49%
Rainfall 0.00 in
Snow Depth Not available.
UV 8 out of 12
Pollen 4.20 out of 12
Air Quality Not available.
Flu Activity Not available.
METAR K1A6 012015Z AUTO 32004KT 10SM CLR 30/15 A3000 RMK AO2 T03010152

More Conditions Fewer Conditions

10-Day Weather Forecast

×

Almanac

Astronomy

Aug. 01, 2015 Rise Set
Actual Time
Civil Twilight
Nautical Twilight
Astronomical Twilight
Moon
Length of Visible Light
Length of Day
Tomorrow will be .
, % of the Moon is Illuminated

Today's Extremes

State Highs State Lows

Community

WunderPhotos

Upload Photos

1,843,050 photos uploaded!

WunderBlogs® & News

Nearby

Air Quality

  Air Quality AQ Index Pollutant
Not available.

Snow Depth

Station Depth Elevation

Earthquake Activity

City Distance Mag. Time & Date
Minimum magnitude displayed is 2.5.

Coastal Water Temperatures

Place Temperature

Stations

Nearby Weather Stations

Station Location Temp. Windchill Dew Point Humidity Wind Precip. Elev Updated Type